sensor_id;sensor_type;location;lat;lon;timestamp;P1;durP1;ratioP1;P2;durP2;ratioP2
46288;SDS011;63105;46.158;14.604;2023-08-30T00:01:05;1.30;;;0.60;;
46288;SDS011;63105;46.158;14.604;2023-08-30T00:03:31;0.98;;;0.50;;
46288;SDS011;63105;46.158;14.604;2023-08-30T00:06:01;0.82;;;0.40;;
46288;SDS011;63105;46.158;14.604;2023-08-30T00:08:26;1.67;;;0.70;;
46288;SDS011;63105;46.158;14.604;2023-08-30T00:10:52;1.52;;;0.60;;
46288;SDS011;63105;46.158;14.604;2023-08-30T00:13:17;1.52;;;0.50;;
46288;SDS011;63105;46.158;14.604;2023-08-30T00:15:42;1.67;;;0.60;;
46288;SDS011;63105;46.158;14.604;2023-08-30T00:18:07;1.20;;;0.53;;
46288;SDS011;63105;46.158;14.604;2023-08-30T00:20:33;1.10;;;0.50;;
46288;SDS011;63105;46.158;14.604;2023-08-30T00:22:59;1.92;;;0.52;;
46288;SDS011;63105;46.158;14.604;2023-08-30T00:25:24;2.03;;;0.60;;
46288;SDS011;63105;46.158;14.604;2023-08-30T00:27:49;1.35;;;0.50;;
46288;SDS011;63105;46.158;14.604;2023-08-30T00:30:14;1.02;;;0.50;;
46288;SDS011;63105;46.158;14.604;2023-08-30T00:32:39;1.65;;;0.60;;
46288;SDS011;63105;46.158;14.604;2023-08-30T00:35:05;1.13;;;0.50;;
46288;SDS011;63105;46.158;14.604;2023-08-30T00:37:30;1.42;;;0.50;;
46288;SDS011;63105;46.158;14.604;2023-08-30T00:39:55;1.48;;;0.50;;
46288;SDS011;63105;46.158;14.604;2023-08-30T00:42:21;1.40;;;0.60;;
46288;SDS011;63105;46.158;14.604;2023-08-30T00:44:46;1.93;;;0.40;;
46288;SDS011;63105;46.158;14.604;2023-08-30T00:47:11;1.48;;;0.55;;
46288;SDS011;63105;46.158;14.604;2023-08-30T00:49:36;1.08;;;0.57;;
46288;SDS011;63105;46.158;14.604;2023-08-30T00:52:03;2.05;;;0.55;;
46288;SDS011;63105;46.158;14.604;2023-08-30T00:54:29;1.52;;;0.52;;
46288;SDS011;63105;46.158;14.604;2023-08-30T00:56:54;1.77;;;0.60;;
46288;SDS011;63105;46.158;14.604;2023-08-30T00:59:20;1.10;;;0.40;;
46288;SDS011;63105;46.158;14.604;2023-08-30T01:01:45;1.33;;;0.50;;
46288;SDS011;63105;46.158;14.604;2023-08-30T01:04:11;0.68;;;0.40;;
46288;SDS011;63105;46.158;14.604;2023-08-30T01:06:36;2.17;;;0.63;;
46288;SDS011;63105;46.158;14.604;2023-08-30T01:09:02;1.03;;;0.50;;
46288;SDS011;63105;46.158;14.604;2023-08-30T01:14:09;1.30;;;0.50;;
46288;SDS011;63105;46.158;14.604;2023-08-30T01:16:36;0.90;;;0.50;;
46288;SDS011;63105;46.158;14.604;2023-08-30T01:19:04;1.55;;;0.47;;
46288;SDS011;63105;46.158;14.604;2023-08-30T01:24:00;1.60;;;0.40;;
46288;SDS011;63105;46.158;14.604;2023-08-30T01:26:45;1.42;;;0.52;;
46288;SDS011;63105;46.158;14.604;2023-08-30T01:29:12;0.65;;;0.50;;
46288;SDS011;63105;46.158;14.604;2023-08-30T01:31:40;1.35;;;0.40;;
46288;SDS011;63105;46.158;14.604;2023-08-30T01:34:06;2.08;;;0.50;;
46288;SDS011;63105;46.158;14.604;2023-08-30T01:36:31;1.40;;;0.60;;
46288;SDS011;63105;46.158;14.604;2023-08-30T01:39:00;2.83;;;0.50;;
46288;SDS011;63105;46.158;14.604;2023-08-30T01:41:26;1.80;;;0.70;;
46288;SDS011;63105;46.158;14.604;2023-08-30T01:43:53;0.88;;;0.40;;
46288;SDS011;63105;46.158;14.604;2023-08-30T01:46:18;0.77;;;0.40;;
46288;SDS011;63105;46.158;14.604;2023-08-30T01:48:44;1.48;;;0.50;;
46288;SDS011;63105;46.158;14.604;2023-08-30T01:51:11;1.23;;;0.65;;
46288;SDS011;63105;46.158;14.604;2023-08-30T01:53:36;1.25;;;0.52;;
46288;SDS011;63105;46.158;14.604;2023-08-30T01:56:02;0.65;;;0.43;;
46288;SDS011;63105;46.158;14.604;2023-08-30T01:58:27;1.60;;;0.60;;
46288;SDS011;63105;46.158;14.604;2023-08-30T02:00:53;1.15;;;0.55;;
46288;SDS011;63105;46.158;14.604;2023-08-30T02:03:18;2.80;;;0.68;;
46288;SDS011;63105;46.158;14.604;2023-08-30T02:05:57;0.82;;;0.50;;
46288;SDS011;63105;46.158;14.604;2023-08-30T02:08:24;1.13;;;0.50;;
46288;SDS011;63105;46.158;14.604;2023-08-30T02:10:52;1.67;;;0.55;;
46288;SDS011;63105;46.158;14.604;2023-08-30T02:13:20;0.93;;;0.60;;
46288;SDS011;63105;46.158;14.604;2023-08-30T02:15:46;2.10;;;0.60;;
46288;SDS011;63105;46.158;14.604;2023-08-30T02:18:12;1.52;;;0.60;;
46288;SDS011;63105;46.158;14.604;2023-08-30T02:20:37;0.98;;;0.50;;
46288;SDS011;63105;46.158;14.604;2023-08-30T02:23:03;1.80;;;0.70;;
46288;SDS011;63105;46.158;14.604;2023-08-30T02:25:28;1.33;;;0.45;;
46288;SDS011;63105;46.158;14.604;2023-08-30T02:27:53;1.20;;;0.63;;
46288;SDS011;63105;46.158;14.604;2023-08-30T02:30:19;0.80;;;0.47;;
46288;SDS011;63105;46.158;14.604;2023-08-30T02:32:44;1.98;;;0.60;;
46288;SDS011;63105;46.158;14.604;2023-08-30T02:35:09;1.20;;;0.50;;
46288;SDS011;63105;46.158;14.604;2023-08-30T02:37:34;2.10;;;0.60;;
46288;SDS011;63105;46.158;14.604;2023-08-30T02:40:00;1.20;;;0.60;;
46288;SDS011;63105;46.158;14.604;2023-08-30T02:42:26;2.33;;;0.90;;
46288;SDS011;63105;46.158;14.604;2023-08-30T02:44:51;1.02;;;0.60;;
46288;SDS011;63105;46.158;14.604;2023-08-30T02:47:16;1.20;;;0.68;;
46288;SDS011;63105;46.158;14.604;2023-08-30T02:49:41;1.95;;;0.70;;
46288;SDS011;63105;46.158;14.604;2023-08-30T02:52:07;1.40;;;0.70;;
46288;SDS011;63105;46.158;14.604;2023-08-30T02:54:32;1.73;;;0.80;;
46288;SDS011;63105;46.158;14.604;2023-08-30T02:56:57;1.87;;;0.63;;
46288;SDS011;63105;46.158;14.604;2023-08-30T02:59:23;1.75;;;0.77;;
46288;SDS011;63105;46.158;14.604;2023-08-30T03:01:48;1.63;;;0.77;;
46288;SDS011;63105;46.158;14.604;2023-08-30T03:04:13;1.95;;;0.70;;
46288;SDS011;63105;46.158;14.604;2023-08-30T03:06:39;2.17;;;0.70;;
46288;SDS011;63105;46.158;14.604;2023-08-30T03:09:04;1.45;;;0.70;;
46288;SDS011;63105;46.158;14.604;2023-08-30T03:11:31;1.92;;;0.80;;
46288;SDS011;63105;46.158;14.604;2023-08-30T03:13:56;2.22;;;0.70;;
46288;SDS011;63105;46.158;14.604;2023-08-30T03:16:22;1.80;;;0.70;;
46288;SDS011;63105;46.158;14.604;2023-08-30T03:18:47;2.03;;;0.80;;
46288;SDS011;63105;46.158;14.604;2023-08-30T03:21:12;0.93;;;0.50;;
46288;SDS011;63105;46.158;14.604;2023-08-30T03:23:38;1.42;;;0.60;;
46288;SDS011;63105;46.158;14.604;2023-08-30T03:26:10;1.83;;;0.68;;
46288;SDS011;63105;46.158;14.604;2023-08-30T03:28:36;1.45;;;0.57;;
46288;SDS011;63105;46.158;14.604;2023-08-30T03:31:01;1.98;;;0.70;;
46288;SDS011;63105;46.158;14.604;2023-08-30T03:33:26;1.88;;;0.70;;
46288;SDS011;63105;46.158;14.604;2023-08-30T03:35:51;1.60;;;0.67;;
46288;SDS011;63105;46.158;14.604;2023-08-30T03:38:16;2.17;;;0.60;;
46288;SDS011;63105;46.158;14.604;2023-08-30T03:40:42;0.83;;;0.50;;
46288;SDS011;63105;46.158;14.604;2023-08-30T03:43:07;1.30;;;0.40;;
46288;SDS011;63105;46.158;14.604;2023-08-30T03:45:36;0.93;;;0.40;;
46288;SDS011;63105;46.158;14.604;2023-08-30T03:48:01;1.05;;;0.45;;
46288;SDS011;63105;46.158;14.604;2023-08-30T03:50:27;1.67;;;0.50;;
46288;SDS011;63105;46.158;14.604;2023-08-30T03:52:52;1.90;;;0.60;;
46288;SDS011;63105;46.158;14.604;2023-08-30T03:55:17;2.50;;;0.60;;
46288;SDS011;63105;46.158;14.604;2023-08-30T03:57:42;1.00;;;0.47;;
46288;SDS011;63105;46.158;14.604;2023-08-30T04:00:08;2.63;;;0.50;;
46288;SDS011;63105;46.158;14.604;2023-08-30T04:02:33;1.38;;;0.50;;
46288;SDS011;63105;46.158;14.604;2023-08-30T04:04:58;0.93;;;0.45;;
46288;SDS011;63105;46.158;14.604;2023-08-30T04:07:23;1.08;;;0.40;;
46288;SDS011;63105;46.158;14.604;2023-08-30T04:09:49;1.77;;;0.50;;
46288;SDS011;63105;46.158;14.604;2023-08-30T04:12:15;0.60;;;0.40;;
46288;SDS011;63105;46.158;14.604;2023-08-30T04:14:40;2.07;;;0.50;;
46288;SDS011;63105;46.158;14.604;2023-08-30T04:17:05;1.83;;;0.50;;
46288;SDS011;63105;46.158;14.604;2023-08-30T04:19:30;0.93;;;0.40;;
46288;SDS011;63105;46.158;14.604;2023-08-30T04:21:56;0.70;;;0.40;;
46288;SDS011;63105;46.158;14.604;2023-08-30T04:24:21;1.87;;;0.70;;
46288;SDS011;63105;46.158;14.604;2023-08-30T04:26:46;1.23;;;0.60;;
46288;SDS011;63105;46.158;14.604;2023-08-30T04:29:16;1.75;;;0.57;;
46288;SDS011;63105;46.158;14.604;2023-08-30T04:31:42;1.95;;;0.50;;
46288;SDS011;63105;46.158;14.604;2023-08-30T04:34:08;1.52;;;0.60;;
46288;SDS011;63105;46.158;14.604;2023-08-30T04:36:33;1.10;;;0.50;;
46288;SDS011;63105;46.158;14.604;2023-08-30T04:38:58;1.00;;;0.50;;
46288;SDS011;63105;46.158;14.604;2023-08-30T04:41:23;1.10;;;0.50;;
46288;SDS011;63105;46.158;14.604;2023-08-30T04:43:49;1.30;;;0.60;;
46288;SDS011;63105;46.158;14.604;2023-08-30T04:46:14;1.10;;;0.40;;
46288;SDS011;63105;46.158;14.604;2023-08-30T04:48:39;1.05;;;0.60;;
46288;SDS011;63105;46.158;14.604;2023-08-30T04:51:04;1.23;;;0.50;;
46288;SDS011;63105;46.158;14.604;2023-08-30T04:53:31;1.38;;;0.57;;
46288;SDS011;63105;46.158;14.604;2023-08-30T04:55:56;1.42;;;0.43;;
46288;SDS011;63105;46.158;14.604;2023-08-30T04:58:22;1.27;;;0.50;;
46288;SDS011;63105;46.158;14.604;2023-08-30T05:00:47;1.13;;;0.50;;
46288;SDS011;63105;46.158;14.604;2023-08-30T05:03:12;1.05;;;0.35;;
46288;SDS011;63105;46.158;14.604;2023-08-30T05:05:38;1.05;;;0.45;;
46288;SDS011;63105;46.158;14.604;2023-08-30T05:08:03;0.80;;;0.40;;
46288;SDS011;63105;46.158;14.604;2023-08-30T05:10:28;1.10;;;0.43;;
46288;SDS011;63105;46.158;14.604;2023-08-30T05:12:54;0.85;;;0.45;;
46288;SDS011;63105;46.158;14.604;2023-08-30T05:15:19;0.97;;;0.50;;
46288;SDS011;63105;46.158;14.604;2023-08-30T05:17:44;1.05;;;0.35;;
46288;SDS011;63105;46.158;14.604;2023-08-30T05:20:10;0.43;;;0.25;;
46288;SDS011;63105;46.158;14.604;2023-08-30T05:22:35;0.70;;;0.40;;
46288;SDS011;63105;46.158;14.604;2023-08-30T05:25:00;0.70;;;0.35;;
46288;SDS011;63105;46.158;14.604;2023-08-30T05:27:26;1.35;;;0.20;;
46288;SDS011;63105;46.158;14.604;2023-08-30T05:29:52;1.30;;;0.40;;
46288;SDS011;63105;46.158;14.604;2023-08-30T05:32:17;1.15;;;0.32;;
46288;SDS011;63105;46.158;14.604;2023-08-30T05:34:42;0.80;;;0.35;;
46288;SDS011;63105;46.158;14.604;2023-08-30T05:37:08;0.82;;;0.30;;
46288;SDS011;63105;46.158;14.604;2023-08-30T05:39:33;0.73;;;0.30;;
46288;SDS011;63105;46.158;14.604;2023-08-30T05:41:59;0.60;;;0.30;;
46288;SDS011;63105;46.158;14.604;2023-08-30T05:44:24;0.60;;;0.30;;
46288;SDS011;63105;46.158;14.604;2023-08-30T05:46:50;0.88;;;0.40;;
46288;SDS011;63105;46.158;14.604;2023-08-30T05:49:15;0.82;;;0.35;;
46288;SDS011;63105;46.158;14.604;2023-08-30T05:51:40;1.02;;;0.40;;
46288;SDS011;63105;46.158;14.604;2023-08-30T05:54:06;0.88;;;0.30;;
46288;SDS011;63105;46.158;14.604;2023-08-30T05:56:31;0.70;;;0.30;;
46288;SDS011;63105;46.158;14.604;2023-08-30T05:58:56;0.88;;;0.30;;
46288;SDS011;63105;46.158;14.604;2023-08-30T06:01:21;0.75;;;0.28;;
46288;SDS011;63105;46.158;14.604;2023-08-30T06:03:47;1.50;;;0.30;;
46288;SDS011;63105;46.158;14.604;2023-08-30T06:06:12;1.30;;;0.30;;
46288;SDS011;63105;46.158;14.604;2023-08-30T06:08:39;0.80;;;0.30;;
46288;SDS011;63105;46.158;14.604;2023-08-30T06:11:07;0.60;;;0.30;;
46288;SDS011;63105;46.158;14.604;2023-08-30T06:13:33;0.63;;;0.30;;
46288;SDS011;63105;46.158;14.604;2023-08-30T06:15:58;0.55;;;0.35;;
46288;SDS011;63105;46.158;14.604;2023-08-30T06:18:23;0.65;;;0.30;;
46288;SDS011;63105;46.158;14.604;2023-08-30T06:20:49;1.58;;;0.30;;
46288;SDS011;63105;46.158;14.604;2023-08-30T06:23:14;0.50;;;0.30;;
46288;SDS011;63105;46.158;14.604;2023-08-30T06:25:40;1.50;;;0.55;;
46288;SDS011;63105;46.158;14.604;2023-08-30T06:28:05;0.70;;;0.40;;
46288;SDS011;63105;46.158;14.604;2023-08-30T06:30:33;0.65;;;0.38;;
46288;SDS011;63105;46.158;14.604;2023-08-30T06:32:59;0.93;;;0.40;;
46288;SDS011;63105;46.158;14.604;2023-08-30T06:35:25;1.00;;;0.40;;
46288;SDS011;63105;46.158;14.604;2023-08-30T06:37:50;2.45;;;0.50;;
46288;SDS011;63105;46.158;14.604;2023-08-30T06:40:15;0.90;;;0.30;;
46288;SDS011;63105;46.158;14.604;2023-08-30T06:42:40;0.77;;;0.32;;
46288;SDS011;63105;46.158;14.604;2023-08-30T06:45:06;1.17;;;0.40;;
46288;SDS011;63105;46.158;14.604;2023-08-30T06:47:31;1.25;;;0.50;;
46288;SDS011;63105;46.158;14.604;2023-08-30T06:49:57;1.20;;;0.50;;
46288;SDS011;63105;46.158;14.604;2023-08-30T06:52:22;1.27;;;0.43;;
46288;SDS011;63105;46.158;14.604;2023-08-30T06:54:48;1.02;;;0.50;;
46288;SDS011;63105;46.158;14.604;2023-08-30T06:57:19;0.45;;;0.40;;
46288;SDS011;63105;46.158;14.604;2023-08-30T06:59:47;0.82;;;0.40;;
46288;SDS011;63105;46.158;14.604;2023-08-30T07:02:12;1.23;;;0.32;;
46288;SDS011;63105;46.158;14.604;2023-08-30T07:04:39;2.00;;;0.40;;
46288;SDS011;63105;46.158;14.604;2023-08-30T07:07:04;1.00;;;0.40;;
46288;SDS011;63105;46.158;14.604;2023-08-30T07:09:30;0.80;;;0.37;;
46288;SDS011;63105;46.158;14.604;2023-08-30T07:11:57;0.50;;;0.28;;
46288;SDS011;63105;46.158;14.604;2023-08-30T07:14:22;0.77;;;0.30;;
46288;SDS011;63105;46.158;14.604;2023-08-30T07:16:47;0.85;;;0.30;;
46288;SDS011;63105;46.158;14.604;2023-08-30T07:19:15;0.82;;;0.28;;
46288;SDS011;63105;46.158;14.604;2023-08-30T07:21:40;0.57;;;0.30;;
46288;SDS011;63105;46.158;14.604;2023-08-30T07:24:06;0.40;;;0.20;;
46288;SDS011;63105;46.158;14.604;2023-08-30T07:26:31;1.73;;;0.20;;
46288;SDS011;63105;46.158;14.604;2023-08-30T07:28:57;0.85;;;0.40;;
46288;SDS011;63105;46.158;14.604;2023-08-30T07:31:22;0.32;;;0.25;;
46288;SDS011;63105;46.158;14.604;2023-08-30T07:33:47;0.52;;;0.30;;
46288;SDS011;63105;46.158;14.604;2023-08-30T07:36:13;0.70;;;0.22;;
46288;SDS011;63105;46.158;14.604;2023-08-30T07:38:38;1.00;;;0.30;;
46288;SDS011;63105;46.158;14.604;2023-08-30T07:41:03;0.43;;;0.20;;
46288;SDS011;63105;46.158;14.604;2023-08-30T07:43:28;0.35;;;0.20;;
46288;SDS011;63105;46.158;14.604;2023-08-30T07:45:54;1.05;;;0.20;;
46288;SDS011;63105;46.158;14.604;2023-08-30T07:48:19;0.80;;;0.28;;
46288;SDS011;63105;46.158;14.604;2023-08-30T07:50:44;0.77;;;0.30;;
46288;SDS011;63105;46.158;14.604;2023-08-30T07:53:09;0.85;;;0.30;;
46288;SDS011;63105;46.158;14.604;2023-08-30T07:55:35;0.77;;;0.28;;
46288;SDS011;63105;46.158;14.604;2023-08-30T07:58:00;1.00;;;0.20;;
46288;SDS011;63105;46.158;14.604;2023-08-30T08:00:26;2.00;;;0.25;;
46288;SDS011;63105;46.158;14.604;2023-08-30T08:02:51;0.20;;;0.10;;
46288;SDS011;63105;46.158;14.604;2023-08-30T08:05:16;1.73;;;0.38;;
46288;SDS011;63105;46.158;14.604;2023-08-30T08:07:43;1.30;;;0.20;;
46288;SDS011;63105;46.158;14.604;2023-08-30T08:10:09;0.55;;;0.20;;
46288;SDS011;63105;46.158;14.604;2023-08-30T08:12:34;0.30;;;0.20;;
46288;SDS011;63105;46.158;14.604;2023-08-30T08:15:00;0.32;;;0.20;;
46288;SDS011;63105;46.158;14.604;2023-08-30T08:17:25;0.30;;;0.20;;
46288;SDS011;63105;46.158;14.604;2023-08-30T08:19:50;0.93;;;0.20;;
46288;SDS011;63105;46.158;14.604;2023-08-30T08:22:16;0.40;;;0.20;;
46288;SDS011;63105;46.158;14.604;2023-08-30T08:24:41;0.68;;;0.30;;
46288;SDS011;63105;46.158;14.604;2023-08-30T08:27:08;0.50;;;0.20;;
46288;SDS011;63105;46.158;14.604;2023-08-30T08:29:33;0.57;;;0.20;;
46288;SDS011;63105;46.158;14.604;2023-08-30T08:31:59;0.70;;;0.30;;
46288;SDS011;63105;46.158;14.604;2023-08-30T08:34:24;0.43;;;0.20;;
46288;SDS011;63105;46.158;14.604;2023-08-30T08:36:50;0.52;;;0.20;;
46288;SDS011;63105;46.158;14.604;2023-08-30T08:39:15;0.53;;;0.23;;
46288;SDS011;63105;46.158;14.604;2023-08-30T08:41:42;0.68;;;0.30;;
46288;SDS011;63105;46.158;14.604;2023-08-30T08:44:08;0.60;;;0.30;;
46288;SDS011;63105;46.158;14.604;2023-08-30T08:46:37;0.60;;;0.30;;
46288;SDS011;63105;46.158;14.604;2023-08-30T08:51:35;0.40;;;0.20;;
46288;SDS011;63105;46.158;14.604;2023-08-30T08:54:02;0.60;;;0.20;;
46288;SDS011;63105;46.158;14.604;2023-08-30T08:56:27;0.73;;;0.30;;
46288;SDS011;63105;46.158;14.604;2023-08-30T08:58:52;0.68;;;0.13;;
46288;SDS011;63105;46.158;14.604;2023-08-30T09:01:18;0.40;;;0.20;;
46288;SDS011;63105;46.158;14.604;2023-08-30T09:03:43;0.28;;;0.17;;
46288;SDS011;63105;46.158;14.604;2023-08-30T09:06:09;0.50;;;0.20;;
46288;SDS011;63105;46.158;14.604;2023-08-30T09:08:34;0.25;;;0.20;;
46288;SDS011;63105;46.158;14.604;2023-08-30T09:10:59;0.57;;;0.30;;
46288;SDS011;63105;46.158;14.604;2023-08-30T09:13:25;0.57;;;0.20;;
46288;SDS011;63105;46.158;14.604;2023-08-30T09:15:51;1.42;;;0.30;;
46288;SDS011;63105;46.158;14.604;2023-08-30T09:18:16;0.40;;;0.25;;
46288;SDS011;63105;46.158;14.604;2023-08-30T09:20:42;1.25;;;0.30;;
46288;SDS011;63105;46.158;14.604;2023-08-30T09:23:15;1.08;;;0.30;;
46288;SDS011;63105;46.158;14.604;2023-08-30T09:25:41;0.82;;;0.40;;
46288;SDS011;63105;46.158;14.604;2023-08-30T09:28:06;0.68;;;0.30;;
46288;SDS011;63105;46.158;14.604;2023-08-30T09:30:32;1.53;;;0.43;;
46288;SDS011;63105;46.158;14.604;2023-08-30T09:33:01;0.80;;;0.28;;
46288;SDS011;63105;46.158;14.604;2023-08-30T09:35:27;0.90;;;0.30;;
46288;SDS011;63105;46.158;14.604;2023-08-30T09:37:53;0.47;;;0.28;;
46288;SDS011;63105;46.158;14.604;2023-08-30T09:40:19;0.70;;;0.30;;
46288;SDS011;63105;46.158;14.604;2023-08-30T09:42:44;1.20;;;0.40;;
46288;SDS011;63105;46.158;14.604;2023-08-30T09:50:10;0.50;;;0.20;;
46288;SDS011;63105;46.158;14.604;2023-08-30T09:52:36;0.85;;;0.40;;
46288;SDS011;63105;46.158;14.604;2023-08-30T09:55:01;0.63;;;0.20;;
46288;SDS011;63105;46.158;14.604;2023-08-30T09:57:27;0.30;;;0.20;;
46288;SDS011;63105;46.158;14.604;2023-08-30T09:59:53;0.40;;;0.20;;
46288;SDS011;63105;46.158;14.604;2023-08-30T10:02:19;0.65;;;0.20;;
46288;SDS011;63105;46.158;14.604;2023-08-30T10:04:44;0.75;;;0.30;;
46288;SDS011;63105;46.158;14.604;2023-08-30T10:07:10;0.70;;;0.22;;
46288;SDS011;63105;46.158;14.604;2023-08-30T10:09:38;0.70;;;0.20;;
46288;SDS011;63105;46.158;14.604;2023-08-30T10:12:03;0.65;;;0.30;;
46288;SDS011;63105;46.158;14.604;2023-08-30T10:14:29;0.63;;;0.28;;
46288;SDS011;63105;46.158;14.604;2023-08-30T10:16:58;0.80;;;0.25;;
46288;SDS011;63105;46.158;14.604;2023-08-30T10:19:26;0.40;;;0.30;;
46288;SDS011;63105;46.158;14.604;2023-08-30T10:24:28;1.17;;;0.38;;
46288;SDS011;63105;46.158;14.604;2023-08-30T10:26:54;1.40;;;0.43;;
46288;SDS011;63105;46.158;14.604;2023-08-30T10:29:21;0.35;;;0.22;;
46288;SDS011;63105;46.158;14.604;2023-08-30T10:31:48;1.13;;;0.40;;
46288;SDS011;63105;46.158;14.604;2023-08-30T10:34:14;0.65;;;0.25;;
46288;SDS011;63105;46.158;14.604;2023-08-30T10:36:41;0.98;;;0.30;;
46288;SDS011;63105;46.158;14.604;2023-08-30T10:39:10;1.30;;;0.40;;
46288;SDS011;63105;46.158;14.604;2023-08-30T10:41:36;0.57;;;0.25;;
46288;SDS011;63105;46.158;14.604;2023-08-30T10:44:01;0.85;;;0.32;;
46288;SDS011;63105;46.158;14.604;2023-08-30T10:46:31;1.15;;;0.40;;
46288;SDS011;63105;46.158;14.604;2023-08-30T10:49:08;0.55;;;0.30;;
46288;SDS011;63105;46.158;14.604;2023-08-30T10:51:34;0.40;;;0.20;;
46288;SDS011;63105;46.158;14.604;2023-08-30T10:54:09;0.60;;;0.30;;
46288;SDS011;63105;46.158;14.604;2023-08-30T10:56:34;0.28;;;0.15;;
46288;SDS011;63105;46.158;14.604;2023-08-30T10:59:01;0.38;;;0.20;;
46288;SDS011;63105;46.158;14.604;2023-08-30T11:01:27;0.50;;;0.30;;
46288;SDS011;63105;46.158;14.604;2023-08-30T11:03:52;0.30;;;0.20;;
46288;SDS011;63105;46.158;14.604;2023-08-30T11:06:17;0.60;;;0.30;;
46288;SDS011;63105;46.158;14.604;2023-08-30T11:08:43;0.68;;;0.20;;
46288;SDS011;63105;46.158;14.604;2023-08-30T11:11:08;1.00;;;0.20;;
46288;SDS011;63105;46.158;14.604;2023-08-30T11:13:35;0.47;;;0.20;;
46288;SDS011;63105;46.158;14.604;2023-08-30T11:16:01;0.20;;;0.13;;
46288;SDS011;63105;46.158;14.604;2023-08-30T11:18:28;0.82;;;0.20;;
46288;SDS011;63105;46.158;14.604;2023-08-30T11:20:57;0.60;;;0.20;;
46288;SDS011;63105;46.158;14.604;2023-08-30T11:23:23;0.35;;;0.17;;
46288;SDS011;63105;46.158;14.604;2023-08-30T11:25:52;0.40;;;0.20;;
46288;SDS011;63105;46.158;14.604;2023-08-30T11:28:24;0.63;;;0.20;;
46288;SDS011;63105;46.158;14.604;2023-08-30T11:30:50;0.45;;;0.20;;
46288;SDS011;63105;46.158;14.604;2023-08-30T11:33:17;1.15;;;0.20;;
46288;SDS011;63105;46.158;14.604;2023-08-30T11:35:43;1.00;;;0.40;;
46288;SDS011;63105;46.158;14.604;2023-08-30T11:38:09;0.50;;;0.25;;
46288;SDS011;63105;46.158;14.604;2023-08-30T11:40:34;0.40;;;0.20;;
46288;SDS011;63105;46.158;14.604;2023-08-30T11:43:00;0.80;;;0.35;;
46288;SDS011;63105;46.158;14.604;2023-08-30T11:45:26;0.40;;;0.25;;
46288;SDS011;63105;46.158;14.604;2023-08-30T11:47:51;0.73;;;0.30;;
46288;SDS011;63105;46.158;14.604;2023-08-30T11:50:17;0.75;;;0.35;;
46288;SDS011;63105;46.158;14.604;2023-08-30T11:52:44;0.70;;;0.25;;
46288;SDS011;63105;46.158;14.604;2023-08-30T11:55:09;0.20;;;0.20;;
46288;SDS011;63105;46.158;14.604;2023-08-30T11:57:38;0.40;;;0.20;;
46288;SDS011;63105;46.158;14.604;2023-08-30T12:00:08;2.05;;;0.50;;
46288;SDS011;63105;46.158;14.604;2023-08-30T12:02:34;1.08;;;0.40;;
46288;SDS011;63105;46.158;14.604;2023-08-30T12:05:00;0.93;;;0.30;;
46288;SDS011;63105;46.158;14.604;2023-08-30T12:07:26;1.73;;;0.30;;
46288;SDS011;63105;46.158;14.604;2023-08-30T12:09:51;0.30;;;0.20;;
46288;SDS011;63105;46.158;14.604;2023-08-30T12:12:17;0.85;;;0.30;;
46288;SDS011;63105;46.158;14.604;2023-08-30T12:14:42;1.15;;;0.30;;
46288;SDS011;63105;46.158;14.604;2023-08-30T12:17:08;0.47;;;0.30;;
46288;SDS011;63105;46.158;14.604;2023-08-30T12:19:34;1.08;;;0.30;;
46288;SDS011;63105;46.158;14.604;2023-08-30T12:22:05;0.35;;;0.25;;
46288;SDS011;63105;46.158;14.604;2023-08-30T12:24:43;0.45;;;0.30;;
46288;SDS011;63105;46.158;14.604;2023-08-30T12:27:09;0.57;;;0.28;;
46288;SDS011;63105;46.158;14.604;2023-08-30T12:29:34;0.93;;;0.30;;
46288;SDS011;63105;46.158;14.604;2023-08-30T12:31:59;0.63;;;0.20;;
46288;SDS011;63105;46.158;14.604;2023-08-30T12:34:24;0.53;;;0.30;;
46288;SDS011;63105;46.158;14.604;2023-08-30T12:36:50;1.73;;;0.30;;
46288;SDS011;63105;46.158;14.604;2023-08-30T12:39:15;1.20;;;0.40;;
46288;SDS011;63105;46.158;14.604;2023-08-30T12:41:41;0.63;;;0.30;;
46288;SDS011;63105;46.158;14.604;2023-08-30T12:44:07;0.45;;;0.20;;
46288;SDS011;63105;46.158;14.604;2023-08-30T12:46:33;0.77;;;0.30;;
46288;SDS011;63105;46.158;14.604;2023-08-30T12:48:58;0.63;;;0.20;;
46288;SDS011;63105;46.158;14.604;2023-08-30T12:51:23;0.65;;;0.30;;
46288;SDS011;63105;46.158;14.604;2023-08-30T12:53:49;0.20;;;0.20;;
46288;SDS011;63105;46.158;14.604;2023-08-30T12:56:14;0.57;;;0.20;;
46288;SDS011;63105;46.158;14.604;2023-08-30T12:58:39;0.90;;;0.40;;
46288;SDS011;63105;46.158;14.604;2023-08-30T13:01:04;0.83;;;0.30;;
46288;SDS011;63105;46.158;14.604;2023-08-30T13:03:29;0.80;;;0.27;;
46288;SDS011;63105;46.158;14.604;2023-08-30T13:05:55;0.50;;;0.20;;
46288;SDS011;63105;46.158;14.604;2023-08-30T13:08:20;0.90;;;0.30;;
46288;SDS011;63105;46.158;14.604;2023-08-30T13:10:45;0.50;;;0.20;;
46288;SDS011;63105;46.158;14.604;2023-08-30T13:13:10;0.70;;;0.20;;
46288;SDS011;63105;46.158;14.604;2023-08-30T13:15:36;0.60;;;0.30;;
46288;SDS011;63105;46.158;14.604;2023-08-30T13:18:01;0.47;;;0.30;;
46288;SDS011;63105;46.158;14.604;2023-08-30T13:20:26;0.68;;;0.30;;
46288;SDS011;63105;46.158;14.604;2023-08-30T13:22:51;0.68;;;0.30;;
46288;SDS011;63105;46.158;14.604;2023-08-30T13:25:16;0.55;;;0.20;;
46288;SDS011;63105;46.158;14.604;2023-08-30T13:27:43;0.68;;;0.30;;
46288;SDS011;63105;46.158;14.604;2023-08-30T13:30:09;0.22;;;0.10;;
46288;SDS011;63105;46.158;14.604;2023-08-30T13:32:36;0.50;;;0.30;;
46288;SDS011;63105;46.158;14.604;2023-08-30T13:35:02;1.13;;;0.30;;
46288;SDS011;63105;46.158;14.604;2023-08-30T13:37:28;0.60;;;0.30;;
46288;SDS011;63105;46.158;14.604;2023-08-30T13:39:53;0.60;;;0.20;;
46288;SDS011;63105;46.158;14.604;2023-08-30T13:42:19;0.20;;;0.20;;
46288;SDS011;63105;46.158;14.604;2023-08-30T13:44:44;0.38;;;0.28;;
46288;SDS011;63105;46.158;14.604;2023-08-30T13:47:10;0.38;;;0.20;;
46288;SDS011;63105;46.158;14.604;2023-08-30T13:49:35;0.35;;;0.20;;
46288;SDS011;63105;46.158;14.604;2023-08-30T13:52:02;0.50;;;0.20;;
46288;SDS011;63105;46.158;14.604;2023-08-30T13:54:28;0.75;;;0.20;;
46288;SDS011;63105;46.158;14.604;2023-08-30T13:56:56;0.40;;;0.20;;
46288;SDS011;63105;46.158;14.604;2023-08-30T13:59:21;0.40;;;0.10;;
46288;SDS011;63105;46.158;14.604;2023-08-30T14:01:47;0.40;;;0.17;;
46288;SDS011;63105;46.158;14.604;2023-08-30T14:04:12;0.53;;;0.27;;
46288;SDS011;63105;46.158;14.604;2023-08-30T14:06:37;0.33;;;0.20;;
46288;SDS011;63105;46.158;14.604;2023-08-30T14:09:03;0.33;;;0.10;;
46288;SDS011;63105;46.158;14.604;2023-08-30T14:11:30;0.80;;;0.25;;
46288;SDS011;63105;46.158;14.604;2023-08-30T14:13:55;0.90;;;0.30;;
46288;SDS011;63105;46.158;14.604;2023-08-30T14:16:21;0.30;;;0.20;;
46288;SDS011;63105;46.158;14.604;2023-08-30T14:18:46;0.25;;;0.20;;
46288;SDS011;63105;46.158;14.604;2023-08-30T14:21:11;0.10;;;0.10;;
46288;SDS011;63105;46.158;14.604;2023-08-30T14:23:38;0.68;;;0.20;;
46288;SDS011;63105;46.158;14.604;2023-08-30T14:26:04;0.75;;;0.20;;
46288;SDS011;63105;46.158;14.604;2023-08-30T14:28:37;0.40;;;0.20;;
46288;SDS011;63105;46.158;14.604;2023-08-30T14:31:03;0.57;;;0.32;;
46288;SDS011;63105;46.158;14.604;2023-08-30T14:33:29;0.90;;;0.32;;
46288;SDS011;63105;46.158;14.604;2023-08-30T14:35:54;0.60;;;0.30;;
46288;SDS011;63105;46.158;14.604;2023-08-30T14:38:21;0.77;;;0.35;;
46288;SDS011;63105;46.158;14.604;2023-08-30T14:40:56;0.52;;;0.25;;